createdAt,value
2023-07-03T00:00:41.921Z,16.50
2023-07-03T00:03:14.965Z,16.40
2023-07-03T00:05:48.281Z,16.20
2023-07-03T00:08:19.396Z,16.10
2023-07-03T00:10:47.419Z,16.00
2023-07-03T00:13:15.096Z,15.90
2023-07-03T00:15:43.334Z,15.90
2023-07-03T00:18:11.298Z,15.80
2023-07-03T00:20:39.633Z,15.70
2023-07-03T00:23:07.316Z,15.70
2023-07-03T00:25:34.974Z,15.70
2023-07-03T00:28:02.733Z,15.70
2023-07-03T00:30:31.180Z,15.60
2023-07-03T00:32:58.858Z,15.50
2023-07-03T00:35:26.446Z,15.40
2023-07-03T00:37:54.230Z,15.40
2023-07-03T00:40:21.965Z,15.30
2023-07-03T00:42:52.870Z,15.30
2023-07-03T00:45:21.977Z,15.30
2023-07-03T00:47:51.208Z,15.30
2023-07-03T00:50:19.943Z,15.30
2023-07-03T00:53:00.260Z,15.40
2023-07-03T00:55:28.129Z,15.40
2023-07-03T00:57:55.772Z,15.40
2023-07-03T01:00:29.762Z,15.40
2023-07-03T01:03:25.913Z,15.30
2023-07-03T01:05:56.937Z,15.20
2023-07-03T01:08:27.273Z,15.10
2023-07-03T01:10:57.194Z,15.10
2023-07-03T01:13:30.225Z,15.10
2023-07-03T01:16:00.057Z,15.10
2023-07-03T01:18:29.454Z,15.10
2023-07-03T01:21:19.161Z,15.10
2023-07-03T01:24:06.728Z,15.20
2023-07-03T01:26:36.926Z,15.20
2023-07-03T01:29:06.891Z,15.10
2023-07-03T01:31:37.388Z,15.10
2023-07-03T01:34:09.386Z,15.00
2023-07-03T01:36:40.573Z,15.10
2023-07-03T01:39:09.251Z,15.10
2023-07-03T01:41:38.109Z,15.10
2023-07-03T01:44:06.824Z,15.10
2023-07-03T01:46:34.545Z,15.10
2023-07-03T01:49:02.472Z,15.10
2023-07-03T01:51:44.803Z,15.10
2023-07-03T01:54:27.456Z,15.00
2023-07-03T01:57:01.497Z,15.10
2023-07-03T01:59:33.157Z,15.10
2023-07-03T02:02:16.853Z,15.10
2023-07-03T02:05:11.994Z,15.10
2023-07-03T02:07:44.892Z,15.10
2023-07-03T02:10:14.375Z,15.10
2023-07-03T02:12:49.410Z,15.10
2023-07-03T02:15:21.761Z,15.10
2023-07-03T02:17:55.924Z,15.10
2023-07-03T02:20:29.006Z,15.10
2023-07-03T02:22:59.862Z,15.00
2023-07-03T02:25:28.646Z,15.00
2023-07-03T02:27:57.645Z,15.00
2023-07-03T02:30:25.375Z,15.00
2023-07-03T02:32:53.156Z,15.00
2023-07-03T02:35:21.028Z,15.00
2023-07-03T02:37:49.463Z,15.00
2023-07-03T02:40:17.734Z,15.00
2023-07-03T02:42:45.461Z,14.90
2023-07-03T02:45:13.622Z,14.90
2023-07-03T02:47:42.126Z,15.00
2023-07-03T02:50:13.534Z,15.00
2023-07-03T02:52:41.580Z,15.00
2023-07-03T02:55:11.563Z,14.90
2023-07-03T02:57:39.435Z,14.90
2023-07-03T03:00:09.472Z,14.90
2023-07-03T03:02:37.780Z,14.80
2023-07-03T03:05:06.728Z,14.80
2023-07-03T03:07:34.515Z,14.70
2023-07-03T03:10:02.405Z,14.70
2023-07-03T03:12:30.218Z,14.70
2023-07-03T03:14:58.222Z,14.80
2023-07-03T03:17:26.495Z,14.70
2023-07-03T03:19:54.476Z,14.70
2023-07-03T03:22:22.137Z,14.70
2023-07-03T03:24:49.799Z,14.70
2023-07-03T03:27:17.740Z,14.70
2023-07-03T03:29:45.756Z,14.60
2023-07-03T03:32:13.625Z,14.60
2023-07-03T03:34:41.544Z,14.60
2023-07-03T03:37:09.480Z,14.60
2023-07-03T03:39:38.753Z,14.50
2023-07-03T03:42:08.511Z,14.50
2023-07-03T03:44:36.569Z,14.50
2023-07-03T03:47:04.997Z,14.50
2023-07-03T03:49:34.031Z,14.50
2023-07-03T03:52:02.813Z,14.40
2023-07-03T03:54:30.882Z,14.50
2023-07-03T03:56:59.816Z,14.40
2023-07-03T03:59:27.524Z,14.40
2023-07-03T04:01:55.669Z,14.30
2023-07-03T04:04:23.582Z,14.30
2023-07-03T04:06:53.771Z,14.30
2023-07-03T04:09:21.750Z,14.40
2023-07-03T04:11:49.568Z,14.30
2023-07-03T04:14:17.813Z,14.30
2023-07-03T04:16:48.024Z,14.40
2023-07-03T04:19:19.643Z,14.40
2023-07-03T04:21:47.467Z,14.40
2023-07-03T04:24:15.514Z,14.40
2023-07-03T04:26:43.745Z,14.50
2023-07-03T04:29:11.340Z,14.50
2023-07-03T04:31:40.447Z,14.50
2023-07-03T04:34:08.274Z,14.60
2023-07-03T04:36:36.211Z,14.80
2023-07-03T04:39:04.159Z,14.80
2023-07-03T04:41:32.092Z,15.00
2023-07-03T04:44:02.332Z,15.10
2023-07-03T04:46:30.788Z,15.20
2023-07-03T04:49:05.656Z,15.10
2023-07-03T04:51:33.997Z,15.10
2023-07-03T04:54:02.567Z,15.10
2023-07-03T04:56:33.999Z,15.10
2023-07-03T04:59:01.988Z,15.30
2023-07-03T05:01:31.568Z,15.40
2023-07-03T05:03:59.777Z,15.60
2023-07-03T05:06:27.612Z,15.50
2023-07-03T05:08:55.597Z,15.60
2023-07-03T05:11:23.257Z,15.60
2023-07-03T05:13:50.893Z,15.60
2023-07-03T05:16:18.619Z,15.50
2023-07-03T05:18:46.350Z,15.70
2023-07-03T05:21:14.127Z,16.00
2023-07-03T05:23:42.041Z,16.20
2023-07-03T05:26:09.851Z,16.10
2023-07-03T05:28:38.800Z,16.30
2023-07-03T05:31:06.608Z,16.50
2023-07-03T05:33:34.309Z,16.50
2023-07-03T05:36:04.325Z,16.30
2023-07-03T05:38:33.110Z,16.40
2023-07-03T05:41:00.840Z,16.90
2023-07-03T05:43:28.944Z,17.10
2023-07-03T05:45:56.827Z,16.80
2023-07-03T05:48:25.850Z,16.60
2023-07-03T05:50:53.817Z,16.60
2023-07-03T05:53:22.666Z,16.80
2023-07-03T05:55:58.779Z,17.00
2023-07-03T05:58:28.706Z,16.70
2023-07-03T06:00:57.118Z,16.70
2023-07-03T06:03:26.145Z,16.60
2023-07-03T06:05:54.482Z,16.70
2023-07-03T06:08:22.509Z,17.20
2023-07-03T06:10:50.665Z,17.50
2023-07-03T06:13:18.472Z,17.10
2023-07-03T06:15:46.228Z,16.70
2023-07-03T06:18:15.443Z,17.20
2023-07-03T06:20:43.330Z,17.90
2023-07-03T06:23:11.121Z,18.80
2023-07-03T06:25:39.057Z,19.30
2023-07-03T06:28:06.682Z,18.80
2023-07-03T06:30:34.502Z,18.50
2023-07-03T06:33:02.509Z,19.00
2023-07-03T06:35:30.199Z,18.90
2023-07-03T06:38:00.416Z,19.80
2023-07-03T06:40:28.486Z,19.80
2023-07-03T06:42:56.209Z,19.00
2023-07-03T06:45:28.024Z,18.10
2023-07-03T06:47:56.012Z,17.80
2023-07-03T06:50:23.907Z,17.60
2023-07-03T06:52:51.850Z,17.30
2023-07-03T06:55:20.065Z,17.10
2023-07-03T06:57:49.175Z,17.10
2023-07-03T07:00:18.189Z,17.00
2023-07-03T07:02:45.897Z,17.00
2023-07-03T07:05:14.012Z,17.40
2023-07-03T07:07:41.968Z,17.80
2023-07-03T07:10:09.841Z,17.90
2023-07-03T07:12:37.564Z,18.20
2023-07-03T07:15:06.981Z,17.90
2023-07-03T07:17:51.261Z,17.60
2023-07-03T07:20:20.110Z,17.90
2023-07-03T07:22:49.647Z,18.20
2023-07-03T07:25:17.453Z,17.70
2023-07-03T07:27:45.190Z,17.70
2023-07-03T07:30:14.186Z,18.10
2023-07-03T07:32:44.600Z,18.00
2023-07-03T07:35:12.591Z,18.00
2023-07-03T07:37:43.973Z,18.60
2023-07-03T07:40:13.697Z,19.10
2023-07-03T07:42:41.308Z,19.30
2023-07-03T07:45:09.782Z,19.50
2023-07-03T07:47:37.612Z,19.60
2023-07-03T07:50:06.444Z,19.90
2023-07-03T07:52:34.093Z,20.30
2023-07-03T07:55:01.763Z,20.40
2023-07-03T07:57:32.493Z,20.10
2023-07-03T08:00:00.234Z,19.30
2023-07-03T08:02:28.270Z,19.00
2023-07-03T08:04:57.910Z,18.90
2023-07-03T08:07:26.051Z,18.70
2023-07-03T08:09:53.744Z,19.20
2023-07-03T08:12:21.765Z,19.50
2023-07-03T08:14:52.088Z,19.70
2023-07-03T08:17:21.084Z,19.50
2023-07-03T08:19:50.601Z,19.60
2023-07-03T08:22:18.419Z,19.10
2023-07-03T08:24:46.596Z,19.00
2023-07-03T08:27:14.458Z,18.90
2023-07-03T08:29:42.378Z,18.50
2023-07-03T08:32:12.187Z,17.80
2023-07-03T08:37:08.283Z,17.60
2023-07-03T08:37:37.316Z,17.40
2023-07-03T08:40:06.826Z,17.50
2023-07-03T08:42:52.290Z,17.70
2023-07-03T08:45:26.373Z,17.60
2023-07-03T08:47:58.024Z,17.80
2023-07-03T08:50:36.397Z,18.10
2023-07-03T08:53:07.317Z,17.80
2023-07-03T08:55:48.693Z,17.80
2023-07-03T08:58:17.468Z,17.80
2023-07-03T09:01:40.872Z,17.80
2023-07-03T09:05:04.303Z,17.80
2023-07-03T09:08:00.150Z,17.70
2023-07-03T09:10:44.676Z,17.80
2023-07-03T09:13:37.486Z,18.10
2023-07-03T09:16:24.419Z,18.50
2023-07-03T09:19:19.163Z,18.50
2023-07-03T09:21:47.918Z,18.60
2023-07-03T09:24:43.566Z,18.30
2023-07-03T09:27:26.017Z,18.40
2023-07-03T09:30:02.409Z,18.30
2023-07-03T09:32:35.652Z,18.90
2023-07-03T09:35:23.860Z,19.20
2023-07-03T09:38:00.721Z,19.70
2023-07-03T09:40:41.733Z,20.30
2023-07-03T09:43:29.305Z,19.90
2023-07-03T09:46:16.434Z,20.10
2023-07-03T09:48:45.294Z,20.40
2023-07-03T09:51:24.953Z,19.50
2023-07-03T09:53:54.514Z,18.50
2023-07-03T09:56:29.426Z,18.20
2023-07-03T09:59:07.577Z,17.80
2023-07-03T10:07:02.213Z,19.10
2023-07-03T10:12:41.153Z,20.30
2023-07-03T10:15:26.726Z,19.90
2023-07-03T10:18:05.806Z,20.70
2023-07-03T10:20:45.266Z,21.00
2023-07-03T10:23:33.682Z,20.70
2023-07-03T10:26:19.610Z,20.30
2023-07-03T10:28:58.781Z,20.30
2023-07-03T10:31:52.371Z,19.80
2023-07-03T10:35:02.593Z,19.80
2023-07-03T10:37:47.030Z,20.00
2023-07-03T10:40:33.492Z,20.50
2023-07-03T10:43:05.902Z,21.20
2023-07-03T10:45:39.618Z,21.30
2023-07-03T10:48:25.896Z,21.20
2023-07-03T10:51:31.501Z,21.00
2023-07-03T10:54:21.770Z,20.90
2023-07-03T10:56:56.518Z,20.90
2023-07-03T10:59:35.821Z,21.00
2023-07-03T11:02:59.327Z,21.60
2023-07-03T11:05:50.122Z,21.90
2023-07-03T11:08:36.810Z,21.70
2023-07-03T11:11:25.012Z,21.20
2023-07-03T11:14:27.319Z,20.70
2023-07-03T11:17:32.220Z,20.70
2023-07-03T11:23:19.581Z,21.50
2023-07-03T11:29:19.384Z,21.80
2023-07-03T11:31:50.243Z,21.00
2023-07-03T11:37:03.731Z,21.80
2023-07-03T11:45:01.818Z,21.20
2023-07-03T11:47:35.480Z,20.40
2023-07-03T11:50:07.334Z,19.90
2023-07-03T11:52:42.598Z,19.90
2023-07-03T11:55:23.273Z,20.20
2023-07-03T11:58:19.860Z,20.20
2023-07-03T12:01:06.857Z,20.10
2023-07-03T12:04:10.527Z,20.20
2023-07-03T12:06:40.761Z,20.30
2023-07-03T12:09:20.596Z,21.10
2023-07-03T12:12:08.318Z,22.00
2023-07-03T12:14:46.226Z,21.40
2023-07-03T12:17:24.452Z,21.00
2023-07-03T12:20:08.605Z,20.60
2023-07-03T12:22:50.750Z,20.90
2023-07-03T12:25:30.536Z,20.60
2023-07-03T12:28:18.698Z,20.80
2023-07-03T12:30:46.681Z,20.70
2023-07-03T12:33:20.896Z,20.90
2023-07-03T12:35:49.502Z,20.60
2023-07-03T12:38:18.573Z,21.00
2023-07-03T12:40:47.791Z,21.20
2023-07-03T12:43:20.180Z,21.00
2023-07-03T12:45:56.060Z,21.20
2023-07-03T12:48:24.789Z,21.30
2023-07-03T12:50:58.832Z,21.10
2023-07-03T12:53:31.031Z,21.30
2023-07-03T12:56:07.901Z,21.30
2023-07-03T12:58:37.039Z,20.60
2023-07-03T13:01:09.292Z,21.20
2023-07-03T13:03:43.097Z,22.00
2023-07-03T13:06:29.703Z,22.20
2023-07-03T13:09:00.144Z,22.10
2023-07-03T13:11:45.102Z,21.60
2023-07-03T13:14:29.850Z,21.00
2023-07-03T13:17:02.353Z,20.50
2023-07-03T13:19:37.335Z,20.80
2023-07-03T13:22:19.631Z,20.80
2023-07-03T13:24:53.664Z,21.00
2023-07-03T13:27:25.904Z,21.30
2023-07-03T13:30:14.322Z,21.60
2023-07-03T13:33:01.502Z,21.60
2023-07-03T13:35:43.292Z,21.80
2023-07-03T13:38:32.061Z,21.90
2023-07-03T13:41:01.415Z,21.70
2023-07-03T13:43:33.438Z,21.90
2023-07-03T13:46:02.149Z,21.80
2023-07-03T13:48:30.684Z,21.70
2023-07-03T13:50:58.574Z,21.10
2023-07-03T13:53:28.015Z,20.70
2023-07-03T13:55:56.498Z,20.60
2023-07-03T13:58:24.496Z,20.80
2023-07-03T14:00:52.339Z,20.90
2023-07-03T14:03:20.379Z,21.20
2023-07-03T14:05:48.457Z,21.40
2023-07-03T14:08:16.982Z,21.20
2023-07-03T14:10:45.266Z,21.10
2023-07-03T14:13:13.775Z,21.20
2023-07-03T14:15:42.528Z,21.00
2023-07-03T14:18:10.778Z,21.10
2023-07-03T14:20:39.451Z,20.90
2023-07-03T14:23:07.137Z,20.60
2023-07-03T14:25:35.022Z,20.30
2023-07-03T14:28:02.906Z,20.20
2023-07-03T14:30:31.089Z,20.30
2023-07-03T14:32:59.022Z,20.60
2023-07-03T14:35:26.946Z,20.80
2023-07-03T14:37:54.741Z,20.90
2023-07-03T14:40:22.750Z,20.70
2023-07-03T14:42:51.109Z,20.60
2023-07-03T14:45:19.488Z,20.60
2023-07-03T14:47:47.152Z,20.70
2023-07-03T14:50:15.328Z,20.80
2023-07-03T14:52:47.677Z,20.80
2023-07-03T14:55:18.322Z,20.80
2023-07-03T14:57:47.014Z,20.90
2023-07-03T15:00:15.752Z,21.30
2023-07-03T15:02:47.438Z,21.30
2023-07-03T15:05:17.356Z,21.20
2023-07-03T15:07:49.942Z,20.90
2023-07-03T15:10:19.443Z,21.00
2023-07-03T15:12:47.357Z,21.50
2023-07-03T15:15:15.417Z,21.60
2023-07-03T15:17:43.481Z,21.20
2023-07-03T15:20:13.219Z,20.90
2023-07-03T15:22:41.634Z,20.70
2023-07-03T15:25:10.214Z,20.40
2023-07-03T15:27:38.045Z,20.40
2023-07-03T15:30:07.290Z,20.30
2023-07-03T15:32:35.723Z,20.70
2023-07-03T15:35:03.755Z,20.50
2023-07-03T15:37:31.829Z,20.50
2023-07-03T15:39:59.839Z,20.80
2023-07-03T15:42:27.813Z,21.30
2023-07-03T15:45:00.095Z,21.10
2023-07-03T15:47:28.507Z,21.00
2023-07-03T15:49:58.540Z,20.80
2023-07-03T15:52:26.414Z,20.70
2023-07-03T15:54:54.525Z,20.40
2023-07-03T15:57:23.266Z,20.40
2023-07-03T15:59:51.148Z,20.30
2023-07-03T16:02:19.226Z,20.50
2023-07-03T16:04:46.927Z,20.50
2023-07-03T16:07:17.955Z,20.40
2023-07-03T16:09:45.675Z,20.40
2023-07-03T16:12:16.153Z,20.60
2023-07-03T16:14:47.356Z,20.40
2023-07-03T16:17:17.304Z,20.40
2023-07-03T16:20:10.703Z,20.30
2023-07-03T16:22:39.455Z,20.40
2023-07-03T16:25:08.994Z,20.40
2023-07-03T16:27:37.316Z,20.50
2023-07-03T16:30:06.449Z,20.20
2023-07-03T16:32:34.162Z,20.10
2023-07-03T16:35:02.240Z,20.20
2023-07-03T16:37:29.824Z,20.10
2023-07-03T16:39:57.588Z,20.20
2023-07-03T16:42:25.344Z,20.20
2023-07-03T16:44:53.167Z,20.10
2023-07-03T16:47:23.025Z,20.10
2023-07-03T16:49:50.944Z,20.10
2023-07-03T16:52:18.697Z,20.20
2023-07-03T16:54:46.512Z,20.20
2023-07-03T16:57:15.353Z,20.10
2023-07-03T16:59:43.375Z,20.30
2023-07-03T17:02:11.168Z,20.20
2023-07-03T17:04:39.920Z,20.30
2023-07-03T17:07:08.451Z,20.20
2023-07-03T17:09:36.324Z,20.20
2023-07-03T17:12:04.344Z,20.40
2023-07-03T17:14:32.699Z,20.20
2023-07-03T17:17:00.710Z,20.10
2023-07-03T17:19:28.442Z,20.10
2023-07-03T17:21:56.205Z,20.10
2023-07-03T17:24:23.992Z,20.00
2023-07-03T17:26:52.091Z,20.00
2023-07-03T17:29:19.873Z,20.00
2023-07-03T17:31:47.589Z,20.00
2023-07-03T17:34:15.441Z,20.00
2023-07-03T17:36:43.282Z,19.90
2023-07-03T17:39:11.164Z,19.90
2023-07-03T17:41:44.155Z,19.90
2023-07-03T17:44:11.898Z,19.80
2023-07-03T17:46:41.086Z,19.80
2023-07-03T17:49:08.861Z,19.90
2023-07-03T17:51:37.342Z,19.80
2023-07-03T17:54:05.726Z,19.90
2023-07-03T17:56:33.662Z,20.10
2023-07-03T17:59:01.767Z,20.00
2023-07-03T18:01:29.607Z,20.00
2023-07-03T18:03:57.675Z,20.00
2023-07-03T18:06:25.744Z,19.90
2023-07-03T18:08:53.684Z,19.80
2023-07-03T18:11:24.230Z,19.90
2023-07-03T18:13:52.546Z,19.80
2023-07-03T18:16:21.116Z,19.80
2023-07-03T18:18:49.427Z,19.90
2023-07-03T18:21:17.288Z,19.90
2023-07-03T18:23:45.653Z,20.00
2023-07-03T18:26:13.873Z,20.10
2023-07-03T18:28:41.605Z,19.90
2023-07-03T18:31:09.463Z,19.90
2023-07-03T18:33:37.384Z,19.80
2023-07-03T18:36:06.395Z,19.70
2023-07-03T18:38:35.706Z,19.70
2023-07-03T18:41:06.936Z,19.70
2023-07-03T18:43:34.900Z,19.70
2023-07-03T18:46:04.152Z,19.70
2023-07-03T18:48:32.991Z,19.70
2023-07-03T18:51:03.073Z,19.60
2023-07-03T18:53:34.551Z,19.50
2023-07-03T18:56:05.367Z,19.50
2023-07-03T18:58:35.258Z,19.50
2023-07-03T19:01:05.634Z,19.50
2023-07-03T19:03:35.698Z,19.50
2023-07-03T19:06:13.586Z,19.50
2023-07-03T19:08:42.953Z,19.60
2023-07-03T19:11:13.003Z,19.50
2023-07-03T19:13:46.419Z,19.70
2023-07-03T19:16:16.803Z,19.60
2023-07-03T19:18:47.735Z,19.50
2023-07-03T19:21:20.175Z,19.60
2023-07-03T19:23:56.105Z,19.60
2023-07-03T19:26:27.827Z,19.40
2023-07-03T19:28:58.451Z,19.40
2023-07-03T19:31:29.885Z,19.40
2023-07-03T19:34:02.037Z,19.40
2023-07-03T19:36:32.506Z,19.30
2023-07-03T19:39:03.516Z,19.30
2023-07-03T19:41:36.213Z,19.30
2023-07-03T19:44:09.485Z,19.40
2023-07-03T19:46:41.149Z,19.40
2023-07-03T19:49:10.710Z,19.40
2023-07-03T19:51:41.388Z,19.30
2023-07-03T19:54:11.806Z,19.20
2023-07-03T19:56:42.695Z,19.20
2023-07-03T19:59:15.290Z,19.10
2023-07-03T20:01:46.140Z,19.00
2023-07-03T20:04:18.020Z,19.00
2023-07-03T20:06:49.983Z,18.90
2023-07-03T20:09:20.348Z,18.90
2023-07-03T20:11:50.732Z,18.80
2023-07-03T20:14:23.591Z,18.80
2023-07-03T20:16:54.287Z,18.70
2023-07-03T20:19:24.477Z,18.60
2023-07-03T20:21:55.402Z,18.60
2023-07-03T20:24:25.788Z,18.60
2023-07-03T20:26:56.728Z,18.70
2023-07-03T20:29:27.730Z,18.70
2023-07-03T20:31:58.659Z,18.70
2023-07-03T20:34:28.894Z,18.70
2023-07-03T20:36:59.404Z,18.60
2023-07-03T20:39:29.020Z,18.70
2023-07-03T20:41:59.217Z,18.60
2023-07-03T20:44:29.651Z,18.40
2023-07-03T20:46:59.908Z,18.40
2023-07-03T20:49:29.908Z,18.40
2023-07-03T20:52:01.509Z,18.40
2023-07-03T20:54:35.615Z,18.40
2023-07-03T20:57:09.337Z,18.40
2023-07-03T20:59:40.088Z,18.30
2023-07-03T21:02:10.274Z,18.30
2023-07-03T21:04:41.534Z,18.30
2023-07-03T21:07:12.920Z,18.20
2023-07-03T21:09:45.108Z,18.10
2023-07-03T21:12:17.374Z,18.10
2023-07-03T21:14:50.214Z,18.10
2023-07-03T21:17:19.893Z,18.00
2023-07-03T21:19:54.324Z,17.90
2023-07-03T21:22:22.307Z,17.90
2023-07-03T21:24:50.197Z,17.90
2023-07-03T21:27:19.303Z,17.80
2023-07-03T21:29:48.982Z,17.70
2023-07-03T21:32:18.220Z,17.70
2023-07-03T21:34:50.434Z,17.70
2023-07-03T21:37:18.344Z,17.60
2023-07-03T21:39:46.094Z,17.60
2023-07-03T21:42:14.032Z,17.80
2023-07-03T21:44:41.691Z,17.80
2023-07-03T21:47:09.572Z,18.00
2023-07-03T21:49:37.257Z,18.00
2023-07-03T21:52:08.170Z,17.90
2023-07-03T21:54:35.912Z,17.80
2023-07-03T21:57:03.889Z,17.70
2023-07-03T21:59:31.728Z,17.70
2023-07-03T22:02:00.520Z,17.70
2023-07-03T22:04:28.624Z,17.60
2023-07-03T22:06:56.589Z,17.60
2023-07-03T22:09:36.595Z,17.50
2023-07-03T22:12:08.178Z,17.50
2023-07-03T22:14:36.740Z,17.50
2023-07-03T22:17:04.966Z,17.50
2023-07-03T22:19:32.894Z,17.50
2023-07-03T22:22:01.058Z,17.50
2023-07-03T22:24:30.326Z,17.40
2023-07-03T22:26:58.493Z,17.30
2023-07-03T22:29:29.687Z,17.30
2023-07-03T22:31:58.308Z,17.20
2023-07-03T22:34:26.404Z,17.30
2023-07-03T22:36:54.172Z,17.30
2023-07-03T22:39:21.738Z,17.40
2023-07-03T22:41:49.293Z,17.30
2023-07-03T22:44:17.072Z,17.30
2023-07-03T22:46:44.886Z,17.30
2023-07-03T22:49:24.672Z,17.30
2023-07-03T22:51:53.851Z,17.30
2023-07-03T22:54:22.752Z,17.30
2023-07-03T22:56:50.619Z,17.40
2023-07-03T22:59:18.232Z,17.50
2023-07-03T23:01:49.364Z,17.50
2023-07-03T23:04:17.911Z,17.50
2023-07-03T23:06:47.250Z,17.60
2023-07-03T23:09:17.867Z,17.60
2023-07-03T23:11:46.004Z,17.60
2023-07-03T23:14:16.693Z,17.60
2023-07-03T23:16:47.658Z,17.60
2023-07-03T23:19:17.857Z,17.60
2023-07-03T23:21:50.368Z,17.60
2023-07-03T23:24:20.530Z,17.50
2023-07-03T23:26:50.041Z,17.50
2023-07-03T23:29:19.287Z,17.60
2023-07-03T23:31:46.816Z,17.60
2023-07-03T23:34:16.656Z,17.60
2023-07-03T23:36:44.343Z,17.60
2023-07-03T23:39:12.085Z,17.50
2023-07-03T23:41:40.576Z,17.40
2023-07-03T23:44:08.388Z,17.30
2023-07-03T23:46:37.370Z,16.90
2023-07-03T23:49:05.135Z,16.60
2023-07-03T23:51:33.359Z,16.40
2023-07-03T23:54:02.083Z,16.20
2023-07-03T23:56:32.410Z,16.10
2023-07-03T23:59:01.384Z,16.00
